Terminal Aerodrome Forecast
Issued by NWS Tuscon, AZ

Home | Current Version | Previous Version | Text Only | Print | Product List | Glossary On
Versions: 1 2 3 4 5 6 7 8 9 10 11 12
000
FTUS45 KTWC 301100
TAFTUS
TAF
KTUS 301132Z 3012/3112 14008KT P6SM SKC
     FM301600 VRB03KT P6SM FEW100
     FM302200 31007KT P6SM FEW100
     FM310600 14007KT P6SM SKC=

USA.gov is the U.S. government's official web portal to all federal, state and local government web resources and services.